Time;durP1;ratioP1;P1;durP2;ratioP2;P2;SDS_P1;SDS_P2;PMS_P1;PMS_P2;Temp;Humidity;BMP_temperature;BMP_pressure;BME280_temperature;BME280_humidity;BME280_pressure;Samples;Min_cycle;Max_cycle;Signal;HPM_P1;HPM_P2
2024/04/05 00:01:02;;;;;;;0.00;0.00;;;;;;;11.18;100.00;99078.41;4977716;28;20042;-79
2024/04/05 00:03:32;;;;;;;0.00;0.00;;;;;;;11.23;100.00;99088.44;4976019;28;20033;-81
2024/04/05 00:05:57;;;;;;;0.00;0.00;;;;;;;11.31;100.00;99099.50;4964332;28;20473;-81
2024/04/05 00:08:25;;;;;;;0.10;0.10;;;;;;;11.12;100.00;99061.28;4986002;28;20058;-80
2024/04/05 00:10:51;;;;;;;0.00;0.00;;;;;;;11.19;100.00;99080.03;4976433;28;20084;-80
2024/04/05 00:13:21;;;;;;;0.00;0.00;;;;;;;11.20;100.00;99080.84;4970198;28;20022;-80
2024/04/05 00:15:46;;;;;;;0.00;0.00;;;;;;;11.07;100.00;99066.03;4992671;28;20030;-80
2024/04/05 00:18:22;;;;;;;;;;;;;;;;;;;;;
2024/04/05 00:20:57;;;;;;;0.00;0.00;;;;;;;11.07;100.00;99066.03;4979764;28;20033;-81
2024/04/05 00:23:27;;;;;;;;;;;;;;;11.27;100.00;99087.56;4983717;28;21443;-81
2024/04/05 00:26:19;;;;;;;0.00;0.00;;;;;;;11.25;100.00;99081.56;4980197;28;19964;-80
2024/04/05 00:28:47;;;;;;;0.00;0.00;;;;;;;11.25;100.00;99084.28;4979076;28;20092;-79
2024/04/05 00:31:12;;;;;;;0.00;0.00;;;;;;;11.17;100.00;99072.13;4991726;28;20039;-79
2024/04/05 00:33:38;;;;;;;0.00;0.00;;;;;;;11.12;100.00;99057.72;4968135;28;20696;-79
2024/04/05 00:36:15;;;;;;;;;;;;;;;;;;;;;
2024/04/05 00:38:50;;;;;;;0.00;0.00;;;;;;;11.14;100.00;99072.75;4988521;28;20026;-82
2024/04/05 00:41:33;;;;;;;0.00;0.00;;;;;;;11.07;100.00;99057.81;4971641;28;20045;-81
2024/04/05 00:43:59;;;;;;;0.00;0.00;;;;;;;11.11;100.00;99062.41;4970598;28;20023;-80
2024/04/05 00:46:24;;;;;;;0.00;0.00;;;;;;;10.87;100.00;99013.34;4956001;28;20035;-80
2024/04/05 00:48:50;;;;;;;0.00;0.00;;;;;;;11.10;100.00;99065.44;4977433;28;20031;-81
2024/04/05 00:51:17;;;;;;;0.00;0.00;;;;;;;11.00;100.00;99039.09;4983241;28;20375;-80
2024/04/05 00:54:07;;;;;;;0.00;0.00;;;;;;;11.06;100.00;99034.34;4985450;28;20034;-80
2024/04/05 00:56:38;;;;;;;0.00;0.00;;;;;;;11.00;100.00;99028.94;4982671;28;20061;-79
2024/04/05 00:59:20;;;;;;;;;;;;;;;;;;;;;
2024/04/05 01:01:47;;;;;;;0.00;0.00;;;;;;;10.94;100.00;99032.91;4992350;28;20553;-79
2024/04/05 01:04:16;;;;;;;0.00;0.00;;;;;;;10.89;100.00;99022.03;4958695;28;20097;-80
2024/04/05 01:06:44;;;;;;;0.00;0.00;;;;;;;10.86;100.00;99005.44;4979034;28;20030;-79
2024/04/05 01:09:13;;;;;;;0.00;0.00;;;;;;;10.91;100.00;99022.56;4958806;28;20033;-79
2024/04/05 01:11:43;;;;;;;0.00;0.00;;;;;;;10.90;100.00;99009.19;4950546;28;20362;-80
2024/04/05 01:14:11;;;;;;;0.00;0.00;;;;;;;10.97;100.00;99035.03;4984075;28;20029;-80
2024/04/05 01:16:36;;;;;;;0.00;0.00;;;;;;;10.69;100.00;98962.28;4957096;28;20117;-78
2024/04/05 01:19:02;;;;;;;0.00;0.00;;;;;;;10.72;100.00;98989.00;4956089;28;20557;-80
2024/04/05 01:21:28;;;;;;;0.00;0.00;;;;;;;10.75;100.00;98991.97;4966937;28;20052;-80
2024/04/05 01:23:54;;;;;;;0.00;0.00;;;;;;;10.82;100.00;99005.25;4939991;28;20031;-81
2024/04/05 01:26:19;;;;;;;0.00;0.00;;;;;;;10.53;100.00;98965.31;4947272;28;20049;-80
2024/04/05 01:28:48;;;;;;;0.00;0.00;;;;;;;10.63;100.00;98975.22;4990633;28;20030;-77
2024/04/05 01:31:16;;;;;;;0.00;0.00;;;;;;;10.63;100.00;98973.31;4959250;28;20026;-76
2024/04/05 01:33:42;;;;;;;0.00;0.00;;;;;;;10.62;100.00;98947.09;4958991;28;20524;-77
2024/04/05 01:36:07;;;;;;;0.00;0.00;;;;;;;10.52;100.00;98922.69;4973748;28;20042;-77
2024/04/05 01:39:26;;;;;;;;;;;;;;;;;;;;;
2024/04/05 01:41:59;;;;;;;0.00;0.00;;;;;;;10.60;100.00;98948.50;4985094;28;20044;-76
2024/04/05 01:44:37;;;;;;;;;;;;;;;;;;;;;
2024/04/05 01:47:12;;;;;;;0.00;0.00;;;;;;;10.36;100.00;98915.88;4988112;28;20031;-77
2024/04/05 01:50:04;;;;;;;;;;;;;;;;;;;;;
2024/04/05 01:52:35;;;;;;;0.00;0.00;;;;;;;10.79;100.00;98978.47;4948334;28;20023;-77
2024/04/05 01:55:04;;;;;;;0.10;0.10;;;;;;;10.41;100.00;98913.03;4964207;28;20029;-77
2024/04/05 01:57:53;;;;;;;;;;;;;;;;;;;;;
2024/04/05 02:00:28;;;;;;;0.00;0.00;;;;;;;10.47;100.00;98911.84;4983201;28;20025;-76
2024/04/05 02:02:57;;;;;;;0.10;0.10;;;;;;;10.45;100.00;98905.88;4963892;28;20038;-76
2024/04/05 02:09:28;;;;;;;0.00;0.00;;;;;;;10.75;100.00;98929.06;4945800;28;20038;-77
2024/04/05 02:11:54;;;;;;;0.00;0.00;;;;;;;10.45;100.00;98893.03;4967827;28;20484;-78
2024/04/05 02:14:25;;;;;;;0.00;0.00;;;;;;;10.63;100.00;98921.38;4973985;28;20044;-77
2024/04/05 02:16:55;;;;;;;0.00;0.00;;;;;;;10.36;100.00;98870.22;4973034;28;20150;-77
2024/04/05 02:19:23;;;;;;;0.00;0.00;;;;;;;10.52;100.00;98875.41;4971914;28;20084;-76
2024/04/05 02:22:19;;;;;;;;;;;;;;;;;;;;;
2024/04/05 02:24:49;;;;;;;0.00;0.00;;;;;;;10.33;100.00;98843.50;4966535;28;21280;-76
2024/04/05 02:27:17;;;;;;;0.00;0.00;;;;;;;10.39;100.00;98849.69;4973566;28;20034;-76
2024/04/05 02:30:24;;;;;;;0.00;0.00;;;;;;;10.55;100.00;98870.13;4975701;28;20076;-77
2024/04/05 02:33:24;;;;;;;0.00;0.00;;;;;;;10.45;100.00;98853.94;4970882;28;20469;-77
2024/04/05 02:36:01;;;;;;;0.00;0.00;;;;;;;10.44;100.00;98849.59;4960118;28;20053;-76
2024/04/05 02:38:26;;;;;;;0.00;0.00;;;;;;;10.57;100.00;98846.06;4969173;28;20034;-77
2024/04/05 02:40:53;;;;;;;0.00;0.00;;;;;;;10.56;100.00;98838.97;4955053;28;20101;-76
2024/04/05 02:43:21;;;;;;;0.00;0.00;;;;;;;10.44;100.00;98803.13;4967681;28;20121;-75
2024/04/05 02:45:49;;;;;;;0.00;0.00;;;;;;;10.60;100.00;98829.06;4964465;28;20026;-75
2024/04/05 02:48:24;;;;;;;0.00;0.00;;;;;;;10.57;100.00;98829.66;4970730;28;20050;-76
2024/04/05 02:50:49;;;;;;;0.00;0.00;;;;;;;10.57;100.00;98848.78;4968633;28;20479;-77
2024/04/05 02:53:15;;;;;;;0.00;0.00;;;;;;;10.34;100.00;98786.94;4971259;28;20037;-78
2024/04/05 02:55:40;;;;;;;0.00;0.00;;;;;;;10.55;100.00;98820.94;4965437;28;20109;-75
2024/04/05 02:58:05;;;;;;;0.00;0.00;;;;;;;10.62;100.00;98842.41;4955642;28;20117;-77
2024/04/05 03:00:36;;;;;;;0.10;0.10;;;;;;;10.55;100.00;98809.22;4985064;28;20050;-77
2024/04/05 03:03:14;;;;;;;;;;;;;;;;;;;;;
2024/04/05 03:05:42;;;;;;;0.10;0.10;;;;;;;10.55;100.00;98803.75;4967074;28;20040;-77
2024/04/05 03:08:08;;;;;;;0.00;0.00;;;;;;;10.72;100.00;98830.44;4966661;28;20029;-76
2024/04/05 03:11:01;;;;;;;0.00;0.00;;;;;;;10.44;100.00;98782.09;4949272;28;20117;-77
2024/04/05 03:17:37;;;;;;;0.00;0.00;;;;;;;10.71;100.00;98813.22;4987897;28;20089;-77
2024/04/05 03:20:08;;;;;;;0.00;0.00;;;;;;;10.39;100.00;98756.78;4959533;28;20118;-76
2024/04/05 03:23:10;;;;;;;0.00;0.00;;;;;;;10.54;100.00;98772.88;4966395;28;20272;-78
2024/04/05 03:33:05;;;;;;;;;;;;;;;;;;;;;
2024/04/05 03:39:00;;;;;;;;;;;;;;;;;;;;;
2024/04/05 03:55:50;;;;;;;;;;;;;;;;;;;;;
2024/04/05 04:02:44;;;;;;;;;;;;;;;;;;;;;
2024/04/05 04:06:11;;;;;;;0.00;0.00;;;;;;;10.47;100.00;98682.31;4869016;29;20037;-77
2024/04/05 04:09:43;;;;;;;;;;;;;;;;;;;;;
2024/04/05 04:12:04;;;;;;;0.00;0.00;;;;;;;10.42;100.00;98658.59;4825187;29;20102;-77
2024/04/05 04:14:52;;;;;;;0.00;0.00;;;;;;;10.72;100.00;98705.50;4834890;29;20489;-77
2024/04/05 04:17:20;;;;;;;0.00;0.00;;;;;;;10.59;100.00;98690.75;4820352;29;20094;-79
2024/04/05 04:19:58;;;;;;;;;;;;;;;;;;;;;
2024/04/05 04:40:47;;;;;;;0.00;0.00;;;;;;;10.35;100.00;98630.09;4764294;29;20113;-78
2024/04/05 04:58:17;;;;;;;;;;;;;;;;;;;;;
2024/04/05 05:07:18;;;;;;;0.00;0.00;;;;;;;10.30;100.00;98640.00;4803353;29;20433;-77
2024/04/05 05:10:17;;;;;;;;;;;;;;;;;;;;;
2024/04/05 05:20:17;;;;;;;;;;;;;;;;;;;;;
2024/04/05 05:54:55;;;;;;;;;;;;;;;;;;;;;
2024/04/05 05:57:26;;;;;;;0.00;0.00;;;;;;;10.38;100.00;98703.25;4865812;29;20133;-75
2024/04/05 06:00:01;;;;;;;0.00;0.00;;;;;;;10.29;100.00;98693.03;4884718;29;20047;-77
2024/04/05 06:02:49;;;;;;;0.00;0.00;;;;;;;10.14;100.00;98676.97;4895912;29;20443;-76
2024/04/05 06:05:20;;;;;;;0.00;0.00;;;;;;;10.30;100.00;98708.28;4921766;28;20042;-76
2024/04/05 06:07:48;;;;;;;0.00;0.00;;;;;;;10.38;100.00;98715.00;4957527;28;20038;-77
2024/04/05 06:11:12;;;;;;;;;;;;;;;;;;;;;
2024/04/05 06:14:11;;;;;;;;;;;;;;;;;;;;;
2024/04/05 06:16:36;;;;;;;0.00;0.00;;;;;;;10.22;100.00;98697.28;4977384;28;20023;-76
2024/04/05 06:19:12;;;;;;;;;;;;;;;;;;;;;
2024/04/05 07:24:13;;;;;;;0.10;0.10;;;;;;;11.32;100.00;98797.34;4808151;27;20053;-76
2024/04/05 07:27:01;;;;;;;0.00;0.00;;;;;;;11.24;100.00;98795.34;4888834;29;20116;-76
2024/04/05 07:29:27;;;;;;;0.00;0.00;;;;;;;11.13;100.00;98794.00;4901060;29;20028;-75
2024/04/05 07:31:53;;;;;;;0.00;0.00;;;;;;;11.32;100.00;98783.66;4846697;29;20032;-75
2024/04/05 07:34:19;;;;;;;0.00;0.00;;;;;;;11.37;100.00;98790.13;4855539;29;20044;-75
2024/04/05 07:36:45;;;;;;;0.00;0.00;;;;;;;11.67;100.00;98783.91;4869029;29;20017;-75
2024/04/05 07:39:11;;;;;;;0.00;0.00;;;;;;;12.13;100.00;98822.19;4878164;29;20365;-75
2024/04/05 07:41:36;;;;;;;0.00;0.00;;;;;;;11.95;100.00;98833.06;4862933;29;20063;-75
2024/04/05 07:44:02;;;;;;;0.00;0.00;;;;;;;11.60;100.00;98823.78;4855386;29;20560;-75
2024/04/05 07:46:27;;;;;;;0.00;0.00;;;;;;;11.34;100.00;98814.25;4864244;29;20432;-75
2024/04/05 07:48:53;;;;;;;0.00;0.00;;;;;;;11.12;100.00;98811.50;4881916;29;20041;-76
2024/04/05 07:51:21;;;;;;;0.00;0.00;;;;;;;11.24;100.00;98841.88;4879345;29;20475;-74
2024/04/05 07:53:47;;;;;;;0.00;0.00;;;;;;;11.37;100.00;98845.69;4888346;29;20304;-75
2024/04/05 07:56:32;;;;;;;0.00;0.00;;;;;;;11.49;100.00;98853.34;4877485;29;20435;-75
2024/04/05 07:58:58;;;;;;;0.00;0.00;;;;;;;11.59;100.00;98839.41;4888882;29;20100;-74
2024/04/05 08:01:23;;;;;;;0.00;0.00;;;;;;;11.98;100.00;98868.03;4895993;29;20471;-75
2024/04/05 08:07:14;;;;;;;0.00;0.00;;;;;;;13.12;100.00;98856.66;4892000;29;20041;-75
2024/04/05 08:09:40;;;;;;;0.00;0.00;;;;;;;13.16;100.00;98868.63;4850418;29;20043;-75
2024/04/05 08:12:06;;;;;;;0.00;0.00;;;;;;;13.17;100.00;98886.69;4875313;29;20037;-75
2024/04/05 08:14:31;;;;;;;0.00;0.00;;;;;;;13.33;100.00;98906.25;4860282;29;20032;-76
2024/04/05 08:16:57;;;;;;;0.10;0.10;;;;;;;13.19;100.00;98911.91;4876124;29;20093;-75
2024/04/05 08:19:24;;;;;;;0.00;0.00;;;;;;;13.27;100.00;98914.66;4860987;29;20100;-76
2024/04/05 08:21:52;;;;;;;0.00;0.00;;;;;;;13.59;100.00;98948.31;4866995;29;20176;-76
2024/04/05 08:24:21;;;;;;;0.00;0.00;;;;;;;13.77;100.00;98926.34;4868701;29;20641;-76
2024/04/05 08:26:48;;;;;;;0.00;0.00;;;;;;;13.65;100.00;98937.16;4873805;29;20384;-76
2024/04/05 08:29:16;;;;;;;0.00;0.00;;;;;;;13.20;100.00;98924.47;4863471;29;20173;-76
2024/04/05 08:31:42;;;;;;;0.00;0.00;;;;;;;13.16;100.00;98950.97;4876963;29;20060;-76
2024/04/05 08:34:07;;;;;;;0.00;0.00;;;;;;;12.83;100.00;98943.91;4885429;29;20060;-76
2024/04/05 08:36:32;;;;;;;0.00;0.00;;;;;;;12.70;100.00;98923.72;4869959;29;21415;-74
2024/04/05 08:39:00;;;;;;;0.00;0.00;;;;;;;13.12;100.00;98949.97;4884891;29;20036;-75
2024/04/05 08:41:34;;;;;;;0.10;0.10;;;;;;;13.44;100.00;98944.06;4859602;29;20048;-75
2024/04/05 08:44:01;;;;;;;0.00;0.00;;;;;;;13.96;100.00;98957.03;4879560;29;20040;-77
2024/04/05 08:46:26;;;;;;;0.00;0.00;;;;;;;14.37;100.00;98932.03;4873470;29;20044;-77
2024/04/05 08:48:53;;;;;;;0.00;0.00;;;;;;;13.94;100.00;98985.97;4890635;29;20028;-75
2024/04/05 08:51:22;;;;;;;0.00;0.00;;;;;;;13.47;100.00;98955.56;4878280;29;20057;-75
2024/04/05 08:53:48;;;;;;;0.00;0.00;;;;;;;13.95;100.00;98962.84;4866337;29;20036;-72
2024/04/05 08:56:19;;;;;;;0.00;0.00;;;;;;;17.19;100.00;98942.13;4888986;29;20032;-75
2024/04/05 08:58:45;;;;;;;0.00;0.00;;;;;;;17.67;94.05;98947.09;4876998;29;20032;-74
2024/04/05 09:01:14;;;;;;;0.00;0.00;;;;;;;18.47;88.23;98949.00;4864746;29;20093;-74
2024/04/05 09:03:40;;;;;;;0.10;0.10;;;;;;;18.38;84.91;98964.16;4865304;29;20056;-74
2024/04/05 09:06:06;;;;;;;0.00;0.00;;;;;;;18.08;83.04;98986.66;4886498;29;20132;-74
2024/04/05 09:08:42;;;;;;;0.00;0.00;;;;;;;17.49;91.13;98996.31;4881811;29;20068;-73
2024/04/05 09:11:08;;;;;;;0.00;0.00;;;;;;;17.45;87.30;98974.09;4870019;29;20083;-75
2024/04/05 09:13:33;;;;;;;0.00;0.00;;;;;;;16.81;89.97;98979.13;4904220;29;20028;-74
2024/04/05 09:16:01;;;;;;;0.10;0.10;;;;;;;17.74;87.39;98986.00;4864111;29;20032;-74
2024/04/05 09:18:27;;;;;;;0.00;0.00;;;;;;;17.28;89.77;98987.00;4873590;29;20037;-74
2024/04/05 09:20:53;;;;;;;0.00;0.00;;;;;;;17.85;84.14;98997.41;4896526;29;20092;-73
2024/04/05 09:23:18;;;;;;;0.00;0.00;;;;;;;16.60;88.65;99000.47;4872068;29;20049;-74
2024/04/05 09:25:44;;;;;;;0.00;0.00;;;;;;;16.10;96.55;98992.03;4878416;29;20036;-75
2024/04/05 09:28:16;;;;;;;0.00;0.00;;;;;;;16.15;96.62;99002.03;4886111;29;20587;-73
2024/04/05 09:30:43;;;;;;;0.00;0.00;;;;;;;16.34;96.44;99004.28;4875677;29;20116;-74
2024/04/05 09:33:19;;;;;;;0.00;0.00;;;;;;;16.20;95.65;98993.56;4866264;29;20392;-75
2024/04/05 09:35:45;;;;;;;0.10;0.10;;;;;;;15.85;96.52;98971.81;4864953;29;20073;-74
2024/04/05 09:38:25;;;;;;;0.00;0.00;;;;;;;15.99;96.91;98988.06;4889198;29;21348;-77
2024/04/05 09:40:51;;;;;;;0.00;0.00;;;;;;;17.61;92.03;98977.75;4886548;29;20040;-74
2024/04/05 09:43:19;;;;;;;0.00;0.00;;;;;;;18.57;81.88;98989.16;4890076;29;20131;-74
2024/04/05 09:45:47;;;;;;;0.00;0.00;;;;;;;20.11;77.09;99002.34;4884986;29;20033;-75
2024/04/05 09:48:12;;;;;;;0.00;0.00;;;;;;;20.15;71.69;98994.09;4898347;29;20029;-74
2024/04/05 09:50:39;;;;;;;0.00;0.00;;;;;;;22.04;69.09;98991.28;4865444;29;20056;-76
2024/04/05 09:53:04;;;;;;;0.00;0.00;;;;;;;23.10;58.39;99006.78;4875133;29;20028;-74
2024/04/05 09:55:37;;;;;;;0.00;0.00;;;;;;;22.63;58.87;99000.75;4872219;29;20024;-73
2024/04/05 09:58:05;;;;;;;0.00;0.00;;;;;;;21.93;60.57;99019.78;4853756;29;20036;-75
2024/04/05 10:00:34;;;;;;;0.00;0.00;;;;;;;20.12;65.71;99003.13;4880292;29;20115;-75
2024/04/05 10:03:00;;;;;;;0.00;0.00;;;;;;;18.48;74.71;99007.91;4862213;29;20485;-74
2024/04/05 10:05:30;;;;;;;0.00;0.00;;;;;;;19.16;71.28;99006.13;4871840;29;20128;-74
2024/04/05 10:08:07;;;;;;;0.00;0.00;;;;;;;18.51;73.33;99040.41;4878138;29;20017;-74
2024/04/05 10:10:33;;;;;;;0.00;0.00;;;;;;;20.11;70.10;99018.19;4886332;29;20123;-75
2024/04/05 10:13:24;;;;;;;0.00;0.00;;;;;;;21.33;63.25;99037.13;4862460;29;20036;-74
2024/04/05 10:15:56;;;;;;;0.00;0.00;;;;;;;20.37;64.69;99057.19;4881802;29;20029;-75
2024/04/05 10:18:42;;;;;;;0.00;0.00;;;;;;;19.31;72.08;99043.31;4904707;29;20028;-74
2024/04/05 10:21:13;;;;;;;0.00;0.00;;;;;;;19.91;71.41;99048.69;4882727;29;20448;-74
2024/04/05 10:23:43;;;;;;;0.00;0.00;;;;;;;19.80;68.83;99053.19;4862390;29;20063;-74
2024/04/05 10:26:11;;;;;;;0.00;0.00;;;;;;;19.66;67.30;99026.72;4884563;29;20029;-73
2024/04/05 10:28:37;;;;;;;0.00;0.00;;;;;;;19.94;68.59;99056.28;4882578;29;20080;-74
2024/04/05 10:31:03;;;;;;;0.00;0.00;;;;;;;19.57;64.81;99051.06;4858427;29;20119;-74
2024/04/05 10:33:29;;;;;;;0.00;0.00;;;;;;;19.34;65.09;99054.47;4868477;29;20120;-75
2024/04/05 10:35:59;;;;;;;0.00;0.00;;;;;;;19.36;66.52;99063.25;4878332;29;20024;-74
2024/04/05 10:38:29;;;;;;;0.00;0.00;;;;;;;18.99;64.32;99077.34;4893247;29;20123;-74
2024/04/05 10:41:02;;;;;;;0.00;0.00;;;;;;;18.18;68.23;99066.38;4875978;29;20029;-74
2024/04/05 10:43:28;;;;;;;0.00;0.00;;;;;;;18.36;69.23;99074.38;4873342;29;20096;-74
2024/04/05 10:45:55;;;;;;;0.00;0.00;;;;;;;17.87;69.89;99106.50;4875421;29;20065;-76
2024/04/05 10:48:22;;;;;;;0.00;0.00;;;;;;;16.91;74.34;99083.63;4877909;29;20032;-74
2024/04/05 10:50:48;;;;;;;0.00;0.00;;;;;;;16.29;77.06;99090.03;4876095;29;20021;-74
2024/04/05 10:53:20;;;;;;;0.00;0.00;;;;;;;16.00;81.25;99091.69;4864469;29;20060;-74
2024/04/05 10:55:47;;;;;;;0.00;0.00;;;;;;;16.31;79.14;99093.25;4856963;29;20025;-74
2024/04/05 10:58:13;;;;;;;0.00;0.00;;;;;;;15.80;80.17;99101.53;4876940;29;20024;-74
2024/04/05 11:00:40;;;;;;;0.00;0.00;;;;;;;15.43;85.35;99109.47;4873922;29;20412;-73
2024/04/05 11:03:07;;;;;;;0.00;0.00;;;;;;;15.13;87.51;99096.47;4892930;29;20032;-74
2024/04/05 11:05:33;;;;;;;0.00;0.00;;;;;;;14.98;87.74;99152.88;4892822;29;20035;-75
2024/04/05 11:08:02;;;;;;;0.00;0.00;;;;;;;14.87;89.92;99109.50;4847461;29;20535;-75
2024/04/05 11:10:30;;;;;;;0.00;0.00;;;;;;;15.04;90.10;99103.97;4878763;29;20443;-74
2024/04/05 11:12:55;;;;;;;0.00;0.00;;;;;;;15.44;87.59;99089.06;4893926;29;20032;-74
2024/04/05 11:15:27;;;;;;;0.00;0.00;;;;;;;18.24;79.08;99076.03;4852026;29;20022;-74
2024/04/05 11:17:59;;;;;;;0.00;0.00;;;;;;;21.59;57.70;99091.19;4886077;29;20043;-74
2024/04/05 11:20:27;;;;;;;0.00;0.00;;;;;;;21.00;55.25;99080.25;4858404;29;20036;-74
2024/04/05 11:23:16;;;;;;;0.00;0.00;;;;;;;18.92;62.42;99070.81;4868913;29;20049;-77
2024/04/05 11:25:54;;;;;;;0.00;0.00;;;;;;;18.03;67.63;99078.16;4862864;29;20048;-73
2024/04/05 11:28:23;;;;;;;0.00;0.00;;;;;;;18.16;69.85;99095.53;4871817;29;20073;-76
2024/04/05 11:30:50;;;;;;;0.00;0.00;;;;;;;17.92;68.56;99098.00;4875235;29;20135;-74
2024/04/05 11:33:16;;;;;;;0.00;0.00;;;;;;;17.00;72.45;99096.53;4866485;29;20033;-74
2024/04/05 11:35:44;;;;;;;0.00;0.00;;;;;;;16.65;75.78;99102.38;4861725;29;20029;-74
2024/04/05 11:38:11;;;;;;;0.00;0.00;;;;;;;16.80;74.53;99082.41;4869784;29;20029;-76
2024/04/05 11:40:37;;;;;;;0.00;0.00;;;;;;;17.46;71.49;99089.00;4875553;29;20477;-76
2024/04/05 11:43:04;;;;;;;0.00;0.00;;;;;;;17.58;70.69;99097.31;4868549;29;20185;-75
2024/04/05 11:45:30;;;;;;;0.00;0.00;;;;;;;17.43;70.56;99117.31;4872690;29;20074;-74
2024/04/05 11:47:56;;;;;;;0.00;0.00;;;;;;;16.90;72.77;99117.09;4866275;29;20037;-75
2024/04/05 11:50:22;;;;;;;0.00;0.00;;;;;;;17.38;71.79;99159.00;4853363;29;20041;-75
2024/04/05 11:52:48;;;;;;;0.00;0.00;;;;;;;18.02;69.80;99151.22;4880138;29;20037;-75
2024/04/05 11:55:14;;;;;;;0.00;0.00;;;;;;;19.18;66.69;99128.50;4864130;29;20392;-75
2024/04/05 11:57:40;;;;;;;0.00;0.00;;;;;;;19.07;62.83;99150.38;4867300;29;20037;-75
2024/04/05 12:00:10;;;;;;;0.00;0.00;;;;;;;18.98;61.66;99153.31;4856731;29;20037;-75
2024/04/05 12:02:36;;;;;;;0.00;0.00;;;;;;;20.03;57.09;99151.22;4864508;29;20032;-76
2024/04/05 12:05:02;;;;;;;0.00;0.00;;;;;;;19.84;56.64;99214.94;4874757;29;20061;-74
2024/04/05 12:07:27;;;;;;;0.00;0.00;;;;;;;19.50;57.76;99153.47;4854034;29;20063;-75
2024/04/05 12:09:53;;;;;;;0.00;0.00;;;;;;;19.45;56.82;99181.44;4865130;29;20440;-75
2024/04/05 12:12:19;;;;;;;0.00;0.00;;;;;;;19.10;60.67;99182.91;4875995;29;20055;-75
2024/04/05 12:14:45;;;;;;;0.00;0.00;;;;;;;19.52;57.44;99171.34;4859256;29;20393;-75
2024/04/05 12:17:10;;;;;;;0.00;0.00;;;;;;;19.29;57.80;99178.63;4869564;29;20036;-75
2024/04/05 12:19:39;;;;;;;0.00;0.00;;;;;;;18.45;59.92;99194.06;4853998;29;20030;-76
2024/04/05 12:22:05;;;;;;;0.00;0.00;;;;;;;17.52;62.29;99181.59;4870104;29;20484;-75
2024/04/05 12:24:31;;;;;;;0.00;0.00;;;;;;;17.12;65.18;99179.41;4882266;29;20071;-74
2024/04/05 12:26:57;;;;;;;0.00;0.00;;;;;;;16.88;67.27;99180.13;4868460;29;20060;-75
2024/04/05 12:29:22;;;;;;;0.00;0.00;;;;;;;16.78;67.91;99189.63;4858013;29;20037;-75
2024/04/05 12:31:50;;;;;;;0.00;0.00;;;;;;;16.63;69.12;99192.97;4877441;29;20530;-74
2024/04/05 12:34:16;;;;;;;0.00;0.00;;;;;;;16.47;70.71;99185.31;4867697;29;20032;-74
2024/04/05 12:36:41;;;;;;;0.00;0.00;;;;;;;16.54;72.42;99204.91;4890433;29;20021;-74
2024/04/05 12:39:14;;;;;;;0.00;0.00;;;;;;;16.32;72.57;99207.97;4843580;29;20096;-75
2024/04/05 12:41:40;;;;;;;0.00;0.00;;;;;;;15.98;73.07;99201.50;4896072;29;20024;-75
2024/04/05 12:44:05;;;;;;;0.00;0.00;;;;;;;15.80;74.38;99207.09;4866001;29;20109;-74
2024/04/05 12:46:31;;;;;;;0.00;0.00;;;;;;;15.75;76.68;99218.25;4848266;29;20101;-75
2024/04/05 12:49:03;;;;;;;0.00;0.00;;;;;;;15.85;77.74;99215.16;4880326;29;20464;-74
2024/04/05 12:51:31;;;;;;;0.00;0.00;;;;;;;16.15;76.13;99217.97;4862257;29;20052;-75
2024/04/05 12:53:56;;;;;;;0.00;0.00;;;;;;;16.32;76.66;99249.34;4869088;29;20055;-75
2024/04/05 12:56:28;;;;;;;0.00;0.00;;;;;;;16.29;75.77;99216.91;4874681;29;20037;-75
2024/04/05 12:58:53;;;;;;;0.00;0.00;;;;;;;16.45;76.07;99226.22;4859639;29;20041;-75
2024/04/05 13:01:19;;;;;;;0.00;0.00;;;;;;;16.47;75.72;99240.50;4878667;29;20029;-75
2024/04/05 13:03:44;;;;;;;0.00;0.00;;;;;;;16.32;76.42;99243.81;4847121;29;20136;-76
2024/04/05 13:06:14;;;;;;;0.00;0.00;;;;;;;16.10;76.30;99256.75;4884883;29;20179;-75
2024/04/05 13:08:43;;;;;;;0.00;0.00;;;;;;;15.93;78.19;99232.00;4881031;29;20499;-74
2024/04/05 13:11:10;;;;;;;0.00;0.00;;;;;;;16.01;76.22;99248.50;4904830;29;20066;-75
2024/04/05 13:13:39;;;;;;;0.00;0.00;;;;;;;15.87;78.88;99234.13;4896259;29;20108;-75
2024/04/05 13:16:06;;;;;;;0.00;0.00;;;;;;;15.91;79.42;99261.88;4877844;29;20032;-75
2024/04/05 13:18:35;;;;;;;0.00;0.00;;;;;;;15.76;79.75;99255.72;4880361;29;20064;-75
2024/04/05 13:21:06;;;;;;;0.00;0.00;;;;;;;15.53;80.53;99302.75;4869757;29;20123;-74
2024/04/05 13:23:37;;;;;;;0.00;0.00;;;;;;;15.11;82.12;99254.88;4872247;29;20075;-76
2024/04/05 13:26:13;;;;;;;0.00;0.00;;;;;;;14.91;82.97;99250.81;4884543;29;20052;-76
2024/04/05 13:28:40;;;;;;;0.00;0.00;;;;;;;14.66;84.58;99253.25;4858193;29;20040;-75
2024/04/05 13:31:07;;;;;;;0.00;0.00;;;;;;;14.59;85.90;99253.69;4876988;29;20036;-76
2024/04/05 13:33:33;;;;;;;0.00;0.00;;;;;;;14.55;86.89;99258.19;4880219;29;20096;-75
2024/04/05 13:36:13;;;;;;;0.00;0.00;;;;;;;14.49;86.80;99243.78;4884792;29;20047;-76
2024/04/05 13:38:51;;;;;;;;;;;;;;;;;;;;;
2024/04/05 13:41:17;;;;;;;0.00;0.00;;;;;;;14.78;86.45;99272.66;4877630;29;20047;-74
2024/04/05 13:43:42;;;;;;;0.00;0.00;;;;;;;14.81;85.81;99263.75;4870421;29;20112;-74
2024/04/05 13:46:12;;;;;;;0.00;0.00;;;;;;;14.66;85.76;99265.06;4860690;29;20037;-75
2024/04/05 13:48:39;;;;;;;0.00;0.00;;;;;;;14.45;87.16;99253.00;4881275;29;20031;-75
2024/04/05 13:51:08;;;;;;;0.00;0.00;;;;;;;14.56;87.58;99281.00;4876236;29;20029;-76
2024/04/05 13:53:35;;;;;;;0.00;0.00;;;;;;;14.53;87.14;99276.97;4871829;29;20476;-75
2024/04/05 13:56:01;;;;;;;0.00;0.00;;;;;;;14.57;86.96;99255.97;4873191;29;20021;-75
2024/04/05 13:58:27;;;;;;;0.00;0.00;;;;;;;14.73;85.81;99307.78;4876944;29;20029;-75
2024/04/05 14:00:56;;;;;;;0.00;0.00;;;;;;;14.73;85.84;99248.06;4875723;29;20033;-76
2024/04/05 14:03:27;;;;;;;0.00;0.00;;;;;;;14.98;85.30;99265.72;4879227;29;20099;-75
2024/04/05 14:06:00;;;;;;;0.00;0.00;;;;;;;15.42;83.00;99254.69;4873395;29;20049;-76
2024/04/05 14:08:29;;;;;;;0.00;0.00;;;;;;;15.51;80.38;99268.44;4894478;29;20036;-76
2024/04/05 14:10:55;;;;;;;0.00;0.00;;;;;;;15.51;80.52;99277.50;4859404;29;20119;-76
2024/04/05 14:13:22;;;;;;;0.00;0.00;;;;;;;15.26;81.22;99264.56;4885679;29;20148;-75
2024/04/05 14:15:59;;;;;;;0.00;0.00;;;;;;;15.28;82.78;99276.06;4883485;29;21218;-75
2024/04/05 14:18:25;;;;;;;0.00;0.00;;;;;;;15.39;82.00;99263.59;4878669;29;20032;-75
2024/04/05 14:20:57;;;;;;;0.00;0.00;;;;;;;15.46;82.32;99263.91;4874634;29;20032;-75
2024/04/05 14:23:24;;;;;;;0.00;0.00;;;;;;;15.67;80.26;99257.69;4856130;29;20064;-76
2024/04/05 14:25:53;;;;;;;0.00;0.00;;;;;;;15.71;79.45;99247.63;4896399;29;20095;-76
2024/04/05 14:28:23;;;;;;;0.00;0.00;;;;;;;15.48;80.09;99244.28;4876977;29;20048;-75
2024/04/05 14:30:57;;;;;;;0.00;0.00;;;;;;;15.26;81.50;99281.91;4875384;29;20067;-75
2024/04/05 14:33:33;;;;;;;0.00;0.00;;;;;;;15.33;81.86;99270.38;4886577;29;20064;-75
2024/04/05 14:36:09;;;;;;;0.00;0.00;;;;;;;15.05;82.99;99279.00;4886664;29;20032;-76
2024/04/05 14:38:38;;;;;;;0.00;0.00;;;;;;;14.75;84.58;99267.00;4892992;29;20032;-77
2024/04/05 14:41:11;;;;;;;0.00;0.00;;;;;;;14.78;85.88;99275.44;4872642;29;20028;-75
2024/04/05 14:43:40;;;;;;;0.00;0.00;;;;;;;14.98;84.47;99306.19;4863541;29;20119;-75
2024/04/05 14:46:07;;;;;;;0.00;0.00;;;;;;;14.81;84.55;99258.25;4872897;29;20127;-75
2024/04/05 14:48:32;;;;;;;0.00;0.00;;;;;;;15.12;83.88;99276.56;4871779;29;20017;-76
2024/04/05 14:51:05;;;;;;;0.00;0.00;;;;;;;14.86;83.71;99300.53;4870492;29;20041;-77
2024/04/05 14:53:31;;;;;;;0.00;0.00;;;;;;;14.79;85.21;99276.22;4845987;29;20027;-76
2024/04/05 14:56:00;;;;;;;0.00;0.00;;;;;;;14.87;85.34;99293.91;4874189;29;20017;-76
2024/04/05 14:58:36;;;;;;;;;;;;;;;;;;;;;
2024/04/05 15:01:14;;;;;;;0.00;0.00;;;;;;;14.99;84.44;99305.06;4899440;29;20035;-76
2024/04/05 15:03:40;;;;;;;0.00;0.00;;;;;;;14.91;83.60;99311.38;4885557;29;20050;-74
2024/04/05 15:06:15;;;;;;;0.00;0.00;;;;;;;14.91;84.71;99298.44;4888222;29;20029;-76
2024/04/05 15:08:41;;;;;;;0.00;0.00;;;;;;;14.73;84.98;99283.81;4870738;29;20472;-75
2024/04/05 15:11:08;;;;;;;0.00;0.00;;;;;;;14.95;84.06;99290.31;4886921;29;20048;-76
2024/04/05 15:13:35;;;;;;;0.00;0.00;;;;;;;14.77;84.36;99304.06;4878439;29;20037;-76
2024/04/05 15:16:04;;;;;;;0.00;0.00;;;;;;;14.83;84.27;99269.78;4871820;29;20035;-76
2024/04/05 15:18:30;;;;;;;0.00;0.00;;;;;;;14.94;83.45;99263.94;4885182;29;20040;-76
2024/04/05 15:20:58;;;;;;;0.00;0.00;;;;;;;14.97;82.81;99291.63;4851749;29;21092;-78